Главная страница
METAR-TAF:

METAR-TAF

Аэропорты :

Мускока, Онтарио, Канада

широта: 44-58N, долгота: 079-18W, высота над уровнем моря: 280 м

Текущие метеонаблюдения

Эта сводка был подготовлена 1 час и 3 минут назад, в 23:00 UTC
Ветер 9 Узел от западный с порывами до 16 Узел
Температура 21°C
Влажность 40%
Давление 1019 hPa
Видимость: 14.5 км

METAR: CYQA 232300Z AUTO 26009G16KT 9SM 21/07 A3008 RMK CLD MISG SLP189 DENSITY ALT 1600FT

Время: 20:03 (00:03 UTC)

Прогноз

Эта сводка был подготовлена 4 часа и 25 минут назад, в 19:38 UTC
Прогноз действительный с 23-го 20 UTC до 24-го 02 UTC
Ветер 10 Узел от западный с порывами до 20 Узел
Видимость: 10 км
ясное небо
изменения
С 23-го 22 UTC до 23-го 24 UTC
Ветер 10 Узел от западный

TAF: CYQA 231938Z 2320/2402 28010G20KT P6SM SKC BECMG 2322/2324 28010KT RMK FCST BASED ON AUTO OBS. FCST BASED ON OBS OBTAINED FM OTHER SOURCES. NXT FCST WILL BE ISSUED AT 241145Z

Метеонаблюдения и прогнозы для более 4000 аэропортов (сводки METAR и TAF).

Имеющиеся станции представлены на карте желтыми и красными точками.

Чтобы увидеть название станции, наведите на нее мышь.

Затем щелкните, чтобы увидеть метеонаблюдения и метеопрогнозы.

Управление картой: чтобы увеличить масштаб, щелкните зеленые кнопки с черным крестиком; чтобы уменьшить масштаб, щелкните зеленую кнопку с тире; для просмотра соседних карт щелкайте зеленые стрелки.


METAR-TAF: